Date,TemperatureHighF,TemperatureAvgF,TemperatureLowF,DewpointHighF,DewpointAvgF,DewpointLowF,HumidityHigh,HumidityAvg,HumidityLow,PressureMaxIn,PressureMinIn,WindSpeedMaxMPH,WindSpeedAvgMPH,GustSpeedMaxMPH,PrecipitationSumIn
2013-1-1,52,41,32,37,34,30,100,78,43,30.32,30.23,18,5,24,0.00
2013-1-2,54,41,32,36,33,28,100,75,43,30.29,30.17,8,1,0,0.00
2013-1-3,52,39,28,41,35,28,100,87,53,30.30,30.20,7,0,0,0.00
2013-1-4,54,41,32,41,36,32,100,85,46,30.33,30.21,9,0,0,0.00
2013-1-5,48,40,32,46,40,32,100,99,81,30.30,30.12,13,2,0,0.00
2013-1-6,54,45,36,48,44,36,100,98,76,30.21,30.11,13,4,16,0.00
2013-1-7,54,44,36,48,43,36,100,95,71,30.26,30.17,10,2,0,0.00
2013-1-8,55,43,34,50,42,34,100,97,76,30.28,30.16,0,0,0,0.00
2013-1-9,52,43,37,52,41,32,100,92,57,30.19,29.95,18,4,27,0.00
2013-1-10,50,40,32,37,34,30,100,80,46,30.16,30.04,9,1,0,0.00
2013-1-11,50,39,30,41,34,30,100,86,49,30.25,30.14,10,1,0,0.00
2013-1-12,48,39,32,37,29,21,100,70,36,30.27,30.17,14,6,16,0.00
2013-1-13,46,38,30,30,22,18,92,56,31,30.29,30.20,18,10,23,0.00
2013-1-14,52,40,36,30,21,14,80,48,26,30.44,30.25,20,10,24,0.00
2013-1-15,52,38,28,36,31,27,100,79,39,30.53,30.41,0,0,0,0.00
2013-1-16,57,40,28,39,34,28,100,82,40,30.47,30.31,6,0,0,0.00
2013-1-17,59,41,30,43,34,30,100,83,35,30.31,30.20,1,0,0,0.00
2013-1-18,61,43,32,43,34,30,100,74,33,30.28,30.17,12,2,0,0.00
2013-1-19,63,44,30,37,32,27,100,69,25,30.31,30.19,9,2,0,0.00
2013-1-20,63,45,32,36,31,23,93,64,23,30.27,30.15,13,3,0,0.00
2013-1-21,63,44,30,41,35,30,100,74,36,30.22,30.14,7,1,0,0.00
2013-1-22,61,45,32,43,37,32,100,77,36,30.18,30.05,6,0,0,0.00
2013-1-23,54,48,45,52,45,39,100,90,71,30.14,30.01,14,2,0,0.00
2013-1-24,59,53,46,57,53,46,100,99,87,30.22,30.10,14,7,20,0.00
2013-1-25,66,56,48,59,54,48,100,93,72,30.22,30.06,5,0,0,0.00
2013-1-26,64,64,64,57,57,57,77,77,77,30.06,30.06,0,0,0,0.00
2013-1-27,64,64,64,57,57,57,77,77,77,30.06,30.06,0,0,0,0.00
2013-1-28,64,64,64,57,57,57,77,77,77,30.06,30.06,0,0,0,0.00
2013-1-29,64,64,64,57,57,57,77,77,77,30.06,30.06,0,0,0,0.00
2013-1-30,64,64,64,57,57,57,77,77,77,30.06,30.06,0,0,0,0.00
2013-1-31,64,64,64,57,57,57,77,77,77,30.06,30.06,0,0,0,0.00
2013-2-1,64,64,64,57,57,57,77,77,77,30.06,30.06,0,0,0,0.00
2013-2-2,64,64,64,57,57,57,77,77,77,30.06,30.06,0,0,0,0.00
2013-2-3,64,64,64,57,57,57,77,77,77,30.06,30.06,0,0,0,0.00
2013-2-4,64,64,64,57,57,57,77,77,77,30.06,30.06,0,0,0,0.00
2013-2-5,64,64,64,57,57,57,77,77,77,30.06,30.06,0,0,0,0.00
2013-2-6,64,64,64,57,57,57,77,77,77,30.06,30.06,0,0,0,0.00
2013-2-7,64,64,64,57,57,57,77,77,77,30.06,30.06,0,0,0,0.00
2013-2-8,64,64,64,57,57,57,77,77,77,30.06,30.06,0,0,0,0.00
2013-2-9,64,64,64,57,57,57,77,77,77,30.06,30.06,0,0,0,0.00
2013-2-10,64,64,64,57,57,57,77,77,77,30.06,30.06,0,0,0,0.00
2013-2-11,64,64,64,57,57,57,77,77,77,30.06,30.06,0,0,0,0.00
2013-2-12,64,64,64,57,57,57,77,77,77,30.06,30.06,0,0,0,0.00
2013-2-13,64,51,43,57,44,37,100,77,39,30.25,30.06,5,0,0,0.00
2013-2-14,72,56,37,45,40,34,100,61,28,30.27,30.17,21,7,27,0.00
2013-2-15,70,53,36,45,39,36,100,63,28,30.31,30.23,10,2,0,0.00
2013-2-16,70,53,39,48,42,37,100,70,37,30.27,30.03,9,2,0,0.00
2013-2-17,66,50,36,46,36,27,100,66,22,30.06,29.96,23,6,28,0.00
2013-2-18,57,46,34,46,40,34,100,81,54,30.01,29.90,23,7,23,0.00
2013-2-19,52,44,37,46,40,32,100,85,49,29.92,29.73,16,8,23,0.00
2013-2-20,61,47,34,37,32,28,100,61,29,30.04,29.84,27,10,33,0.00
2013-2-21,63,47,32,41,33,25,100,62,25,30.18,30.03,18,7,23,0.00
2013-2-22,64,50,34,46,38,32,100,67,36,30.26,30.13,12,4,0,0.00
2013-2-23,61,52,45,46,32,23,87,50,24,30.27,30.11,28,13,29,0.00
2013-2-24,64,51,37,32,27,21,74,40,20,30.27,30.16,28,13,32,0.00
2013-2-25,63,48,36,36,33,30,86,59,31,30.24,30.18,9,4,0,0.00
2013-2-26,68,53,39,32,28,23,75,40,20,30.24,30.13,29,14,36,0.00
2013-2-27,66,50,34,43,32,-100,87,55,27,30.36,30.20,7,0,0,0.00
2013-2-28,72,56,43,48,44,37,100,69,30,30.45,30.35,7,1,0,0.00
2013-3-1,73,57,41,50,46,41,100,71,33,30.43,30.25,13,2,0,0.00
2013-3-2,70,57,43,57,51,43,100,82,52,30.26,30.07,8,1,0,0.00
2013-3-3,66,58,46,55,53,46,100,82,59,30.07,30.01,13,3,0,0.00
2013-3-4,66,51,37,54,48,37,100,87,55,30.14,30.02,8,2,0,0.00
2013-3-5,61,51,39,48,40,27,100,69,47,30.03,29.83,22,10,25,0.00
2013-3-6,57,50,39,50,42,36,100,75,50,30.06,29.83,15,8,25,0.00
2013-3-7,59,46,34,43,39,34,100,78,44,30.02,29.88,13,4,0,0.00
2013-3-8,68,52,37,45,37,32,100,63,26,30.03,29.82,17,6,22,0.00
2013-3-9,70,53,37,48,36,28,100,61,21,30.29,30.03,24,8,31,0.00
2013-3-10,70,54,37,48,37,30,100,55,24,30.39,30.26,12,4,0,0.00
2013-3-11,73,55,37,52,44,37,100,72,31,30.28,30.09,8,0,0,0.00
2013-3-12,75,57,39,54,48,39,100,75,35,30.18,30.07,5,0,0,0.00
2013-3-13,79,60,45,57,49,-100,100,75,34,30.19,30.08,9,-27,97,0.00
2013-3-14,77,61,48,63,53,48,100,79,44,30.16,30.08,8,3,0,0.00
2013-3-15,77,62,48,55,50,43,100,69,31,30.13,30.02,10,4,0,0.00
2013-3-16,79,62,46,52,43,37,100,57,23,30.09,29.98,14,5,17,0.00
2013-3-17,72,58,39,45,37,30,100,50,21,30.16,30.03,10,5,0,0.00
2013-3-18,70,56,43,46,40,-100,93,59,30,30.13,30.03,8,3,0,0.00
2013-3-19,68,57,45,54,45,36,93,68,40,30.14,30.06,14,3,0,0.00
2013-3-20,64,55,48,55,51,46,100,87,72,30.13,30.07,17,8,22,0.00
2013-3-21,66,54,43,48,36,21,100,54,17,30.14,30.02,22,10,25,0.00
2013-3-22,64,56,46,32,25,19,45,31,17,30.14,30.05,29,18,35,0.00
2013-3-23,70,57,46,39,28,23,66,34,16,30.17,30.04,22,4,31,0.00
2013-3-24,73,56,39,46,39,34,86,56,24,30.11,29.96,8,-3,0,0.00
2013-3-25,72,55,37,48,42,36,100,66,33,30.01,29.90,14,4,0,0.00
2013-3-26,72,57,39,46,44,39,100,65,35,30.01,29.92,10,4,0,0.00
2013-3-27,72,58,48,52,48,43,93,71,46,30.02,29.93,16,6,21,0.00
2013-3-28,68,58,50,52,50,46,93,74,52,30.12,30.02,9,4,0,0.00
2013-3-29,77,62,48,52,49,46,93,65,36,30.13,30.02,16,-1,21,0.00
2013-3-30,75,62,52,54,48,-100,87,64,41,30.06,29.98,16,4,0,0.00
2013-3-31,70,58,54,55,54,48,100,85,46,30.11,30.01,17,6,22,0.00
2013-4-1,70,59,52,55,53,48,100,82,49,30.17,30.07,10,3,0,0.00
2013-4-2,73,60,46,57,52,46,100,77,49,30.18,30.07,9,4,0,0.00
2013-4-3,75,61,46,55,52,46,100,74,43,30.15,29.98,8,2,0,0.00
2013-4-4,66,58,52,59,53,46,100,85,67,30.12,29.97,17,8,20,0.00
2013-4-5,68,59,50,54,51,46,100,74,45,30.17,30.10,12,6,0,0.00
2013-4-6,70,60,54,55,51,43,87,71,49,30.19,30.10,15,8,16,0.00
2013-4-7,70,59,50,54,48,43,93,68,51,30.15,29.81,20,8,23,0.00
2013-4-8,68,57,48,48,34,27,93,45,20,30.02,29.76,37,18,45,0.00
2013-4-9,55,55,55,34,34,34,43,43,43,30.02,30.02,12,12,0,0.00
2013-4-10,55,55,55,34,34,34,43,43,43,30.02,30.02,12,12,0,0.00
2013-4-11,55,55,55,34,34,34,43,43,43,30.02,30.02,12,12,0,0.00
2013-4-12,55,55,55,34,34,34,43,43,43,30.02,30.02,12,12,0,0.00
2013-4-13,55,55,55,34,34,34,43,43,43,30.02,30.02,12,12,0,0.00
2013-4-14,55,55,55,34,34,34,43,43,43,30.02,30.02,12,12,0,0.00
2013-4-15,55,55,55,34,34,34,43,43,43,30.02,30.02,12,12,0,0.00
2013-4-16,66,61,48,32,28,23,53,29,20,30.19,30.06,27,14,33,0.00
2013-4-17,68,57,48,32,30,23,53,37,20,30.29,30.19,28,15,33,0.00
2013-4-18,77,65,52,43,34,28,62,32,19,30.29,30.18,17,8,21,0.00
2013-4-19,82,64,43,54,45,37,81,54,26,30.25,30.05,9,2,0,0.00
2013-4-20,84,70,57,46,36,27,62,31,12,30.13,29.96,24,12,31,0.00
2013-4-21,90,71,54,48,39,32,71,36,13,30.06,29.92,24,8,28,0.00
2013-4-22,88,75,59,45,36,25,58,28,10,29.98,29.86,30,14,37,0.00
2013-4-23,84,71,57,43,27,21,50,20,9,29.96,29.83,33,16,39,0.00
2013-4-24,88,69,46,46,36,27,81,38,12,29.87,29.76,25,10,30,0.00
2013-4-25,81,62,45,52,46,41,93,58,26,30.06,29.84,12,5,0,0.00
2013-4-26,82,63,46,55,48,43,93,63,32,30.22,30.06,9,4,0,0.00
2013-4-27,88,67,48,57,50,45,93,60,30,30.22,30.02,9,3,0,0.00
2013-4-28,91,71,52,55,48,37,87,52,15,30.05,29.86,15,4,16,0.00
2013-4-29,91,79,64,54,44,39,63,30,17,29.90,29.75,22,11,30,0.00
2013-4-30,82,74,64,46,29,19,38,20,10,29.88,29.76,33,21,44,0.00
2013-5-1,88,79,68,32,28,23,21,15,10,30.10,29.88,32,19,38,0.00
2013-5-2,91,77,64,43,28,19,33,17,10,30.19,30.06,28,10,29,0.00
2013-5-3,93,75,54,48,40,34,66,33,12,30.06,29.76,13,6,0,0.00
2013-5-4,90,78,61,50,36,30,59,24,12,29.77,29.52,33,14,33,0.00
2013-5-5,72,64,55,50,46,45,71,54,37,29.82,29.55,16,7,18,0.00
2013-5-6,72,63,55,55,52,48,93,66,46,29.97,29.81,14,6,23,0.00
2013-5-7,73,64,57,55,51,-100,87,64,40,30.03,29.96,12,5,0,0.00
2013-5-8,77,65,57,54,52,48,82,65,38,30.09,30.00,14,5,22,0.00
2013-5-9,82,66,52,57,53,48,93,65,39,30.13,30.00,15,5,16,0.00
2013-5-10,88,67,52,61,52,-100,93,64,37,30.15,30.02,10,4,0,0.00
2013-5-11,93,73,54,61,55,-100,93,59,29,30.11,29.99,13,3,0,0.00
2013-5-12,97,74,54,55,50,41,93,50,14,30.10,29.96,17,6,20,0.00
2013-5-13,91,73,54,59,52,46,87,53,21,30.05,29.89,10,5,0,0.00
2013-5-14,90,74,57,55,52,46,87,50,24,29.90,29.83,16,7,20,0.00
2013-5-15,84,67,54,52,48,43,76,52,28,30.00,29.88,13,6,0,0.00
2013-5-16,81,65,55,52,32,-100,72,46,26,29.97,29.88,17,8,23,0.00
2013-5-17,79,63,48,50,42,-100,93,55,27,30.02,29.93,15,5,17,0.00
2013-5-18,82,65,46,52,46,36,93,54,22,30.13,30.02,14,4,17,0.00
2013-5-19,86,73,61,48,37,25,59,29,10,30.13,29.97,27,13,36,0.00
2013-5-20,90,78,66,45,38,28,45,24,11,30.01,29.87,23,12,29,0.00
2013-5-21,84,70,55,48,38,16,76,38,8,29.94,29.83,17,8,22,0.00
2013-5-22,73,62,46,37,26,9,57,30,9,30.01,29.85,29,10,35,0.00
2013-5-23,75,62,45,43,38,30,81,44,19,29.98,29.86,14,5,17,0.00
2013-5-24,81,64,46,45,39,27,81,44,13,29.99,29.88,17,5,17,0.00
2013-5-25,81,63,46,46,45,41,87,55,29,29.99,29.90,15,6,0,0.00
2013-5-26,81,66,50,48,46,43,81,52,27,30.06,29.96,17,5,21,0.00
2013-5-27,70,60,50,57,50,45,87,69,45,30.09,29.98,15,6,18,0.00
2013-5-28,79,68,57,55,53,48,93,61,34,29.98,29.87,13,5,0,0.00
2013-5-29,82,73,63,54,49,45,63,43,26,29.92,29.84,16,7,18,0.00
2013-5-30,86,70,52,48,44,37,87,45,19,29.96,29.88,15,5,20,0.00
2013-5-31,97,77,63,48,38,21,55,29,7,30.00,29.87,24,11,30,0.00
2013-6-1,93,77,64,48,45,39,51,34,18,29.89,29.81,21,8,22,0.00
2013-6-2,93,93,93,45,45,45,18,18,18,29.81,29.81,8,8,0,0.00
2013-6-3,84,74,61,57,53,50,77,51,30,29.74,29.69,10,6,0,0.00
2013-6-4,91,81,64,57,54,50,63,40,27,29.86,29.74,13,8,16,0.00
2013-6-5,88,70,55,57,54,50,87,59,35,29.97,29.82,13,6,16,0.00
2013-6-6,93,72,55,61,56,52,87,60,31,29.92,29.76,12,5,0,0.00
2013-6-7,106,79,57,66,58,48,87,54,14,29.86,29.68,16,4,0,0.00
2013-6-8,106,91,75,70,59,54,64,36,21,29.71,29.61,23,9,33,0.00
2013-6-9,86,76,64,57,54,52,67,46,34,29.82,29.65,20,10,23,0.00
2013-6-10,72,66,59,55,54,52,77,65,52,29.95,29.75,17,9,24,0.00
2013-6-11,84,70,55,55,53,48,87,58,28,29.97,29.85,10,4,0,0.00
2013-6-12,90,73,55,57,49,36,87,49,18,29.94,29.85,16,6,20,0.00
2013-6-13,86,72,54,48,43,39,76,38,19,30.07,29.92,17,6,23,0.00
2013-6-14,88,77,64,48,38,34,48,25,14,29.97,29.79,27,12,32,0.00
2013-6-15,90,72,52,54,48,37,81,47,21,29.90,29.78,13,4,16,0.00
2013-6-16,95,73,54,55,49,41,87,49,15,30.03,29.90,15,4,16,0.00
2013-6-17,90,73,55,54,48,41,76,45,18,30.02,29.93,20,8,21,0.00
2013-6-18,82,70,57,52,46,36,82,46,19,29.97,29.88,18,8,22,0.00
2013-6-19,81,67,52,48,44,41,71,45,25,30.05,29.94,14,4,16,0.00
2013-6-20,84,65,55,48,46,43,76,53,26,29.98,29.90,17,6,20,0.00
2013-6-21,90,88,88,45,39,32,22,17,13,29.93,29.88,10,8,16,0.00
2013-6-22,93,85,66,52,47,41,46,28,18,29.90,29.77,18,8,27,0.00
2013-6-23,79,70,59,61,55,48,82,60,41,29.82,29.74,21,8,25,0.00
2013-6-24,66,64,61,61,58,55,82,80,72,29.89,29.79,14,10,17,0.00
2013-6-25,75,68,61,64,63,61,100,86,69,29.97,29.90,15,10,24,0.00
2013-7-1,104,96,88,66,63,57,48,35,22,29.81,29.76,8,4,0,0.00
2013-7-2,102,88,75,66,64,57,69,46,29,29.82,29.77,15,6,0,0.00
2013-7-3,106,88,70,70,64,57,73,48,26,29.86,29.69,9,4,0,0.00
2013-7-4,109,95,75,66,60,46,73,36,16,29.72,29.58,17,7,25,0.00
2013-7-5,90,76,64,59,53,46,67,45,25,29.71,29.60,12,7,0,0.00
2013-7-6,90,73,61,59,55,54,82,56,31,29.77,29.67,14,6,0,0.00
2013-7-7,93,72,55,61,52,30,93,56,10,29.81,29.72,15,6,17,0.00
2013-7-8,97,70,55,55,43,-100,87,47,9,29.92,29.78,16,5,0,0.00
2013-7-9,100,76,57,55,50,37,87,48,12,30.00,29.88,9,3,0,0.00
2013-7-10,99,72,61,61,42,-100,77,43,12,29.93,29.81,15,5,0,0.00
2013-7-11,64,64,64,50,50,50,59,59,59,29.86,29.86,6,6,0,0.00
2013-7-15,90,80,61,55,52,48,63,39,27,29.81,29.73,14,12,0,0.00
2013-7-16,84,67,50,54,50,46,87,57,28,29.93,29.78,12,7,0,0.00
2013-7-17,81,81,81,54,54,54,39,39,39,29.89,29.89,9,9,0,0.00
2013-7-21,81,81,81,54,54,54,39,39,39,29.89,29.89,9,9,0,0.00
2013-7-22,81,81,81,54,54,54,39,39,39,29.89,29.89,9,9,0,0.00
2013-7-23,81,81,81,54,54,54,39,39,39,29.89,29.89,9,9,0,0.00
2013-7-25,99,89,70,63,57,54,60,35,25,29.92,29.85,12,8,0,0.00
2013-7-26,97,74,59,63,52,-100,77,53,26,30.03,29.89,10,4,0,0.00
2013-7-27,64,62,61,55,54,54,77,74,67,29.94,29.92,5,2,0,0.00
2013-7-28,61,61,61,54,54,54,77,77,77,29.92,29.92,0,0,0,0.00
2013-7-29,82,73,61,55,54,54,77,53,39,29.92,29.87,12,8,0,0.00
2013-7-30,88,71,59,54,52,48,82,57,25,30.07,29.95,6,6,0,0.00
2013-7-31,81,66,55,57,54,52,93,70,44,30.04,29.99,7,2,0,0.00
2013-8-1,72,70,64,54,54,54,67,56,53,29.91,29.90,5,5,0,0.00
2013-8-2,64,64,64,54,54,54,67,67,67,29.91,29.91,2,2,0,0.00
2013-8-3,88,66,61,54,52,52,72,64,31,29.89,29.87,8,4,0,0.00
2013-8-4,88,88,88,54,54,54,31,31,31,29.89,29.89,8,8,0,0.00
2013-8-5,90,78,63,54,50,45,67,43,21,29.93,29.87,10,9,0,0.00
2013-8-6,86,74,61,54,52,50,67,50,33,29.92,29.90,6,6,0,0.00
2013-8-7,81,78,75,55,54,54,50,44,39,30.02,29.97,9,7,0,0.00
2013-8-8,59,57,55,52,52,52,87,82,76,29.98,29.97,6,3,0,0.00
2013-8-9,72,64,55,54,53,52,87,70,53,29.92,29.89,8,4,0,0.00
2013-8-10,77,72,64,57,56,55,72,58,50,29.96,29.92,6,5,0,0.00
2013-8-11,90,73,57,55,54,52,93,59,29,29.96,29.86,12,6,0,0.00
2013-8-12,61,58,55,54,53,52,87,82,77,29.91,29.90,5,2,0,0.00
2013-8-14,70,70,70,57,57,57,64,64,64,29.86,29.86,7,7,0,0.00
2013-8-15,73,71,70,61,58,57,64,64,64,29.88,29.86,7,6,0,0.00
2013-8-20,90,90,90,63,63,63,40,40,40,29.82,29.82,3,3,0,0.00
2013-8-21,84,84,84,61,61,61,45,45,45,29.87,29.87,2,2,0,0.00
2013-8-22,79,79,79,52,52,52,39,39,39,29.90,29.90,2,2,0,0.00
2013-8-28,90,90,90,50,50,50,25,25,25,29.87,29.87,5,5,0,0.00
2013-9-3,84,84,84,52,52,52,32,32,32,29.94,29.94,7,7,0,0.00
2013-9-6,90,86,81,48,46,45,32,26,21,29.97,29.90,12,10,0,0.00
2013-9-17,59,59,59,52,52,52,76,76,76,29.70,29.70,6,6,0,0.00
2013-9-18,59,59,59,52,52,52,76,76,76,29.70,29.70,6,6,0,0.00
2013-9-23,79,79,79,54,54,54,41,41,41,29.98,29.98,0,0,0,0.00
2013-10-31,55,46,43,43,38,36,75,72,62,30.19,30.16,6,2,0,0.00
2013-11-1,75,75,75,43,43,43,31,31,31,30.05,30.05,3,3,0,0.00
2013-12-12,59,41,28,32,30,25,86,66,33,30.30,30.19,9,3,0,0.00
2013-12-13,64,45,32,34,31,28,92,62,27,30.35,30.25,12,4,0,0.00
2013-12-14,59,41,30,36,30,-100,93,71,38,30.45,30.33,5,2,0,0.00
2013-12-15,63,44,32,36,33,28,86,66,33,30.41,30.28,7,4,0,0.00
2013-12-16,64,45,32,37,32,28,86,64,31,30.29,30.16,5,2,0,0.00
2013-12-17,63,48,36,37,34,30,80,61,36,30.22,30.06,5,3,0,0.00
2013-12-18,63,48,37,39,35,32,81,63,33,30.06,29.72,6,4,0,0.00
2013-12-19,59,50,41,37,25,14,81,41,22,29.96,29.72,36,18,41,0.00
2013-12-20,64,52,45,23,12,5,42,20,9,30.02,29.95,27,15,32,0.00
2013-12-21,63,44,32,34,26,-100,80,55,29,30.11,29.98,8,3,0,0.00
2013-12-22,63,44,32,36,31,27,86,63,36,30.31,30.11,8,3,0,0.00
2013-12-23,63,45,32,37,34,28,86,66,39,30.44,30.32,7,3,0,0.00
2013-12-27,57,46,32,34,29,23,74,53,38,30.28,30.17,8,3,0,0.00
2013-12-28,70,47,34,30,23,-100,74,48,19,30.16,30.04,28,10,31,0.00
2013-12-29,63,52,37,34,25,16,60,36,19,30.23,30.11,16,5,22,0.00
2013-12-30,63,47,32,36,28,19,69,48,31,30.30,30.22,7,3,0,0.00
2013-12-31,64,48,37,32,28,25,69,49,25,30.30,30.18,9,4,0,0.00
2014-1-1,63,49,32,32,29,25,80,49,29,30.24,30.15,3,2,0,0.00
2014-1-2,66,50,37,34,31,28,69,50,27,30.22,30.07,8,3,0,0.00